sensor_id;sensor_type;location;lat;lon;timestamp;temperature;humidity
20726;DHT22;10524;48.132;8.518;2022-10-16T00:02:24;12.80;99.90
20726;DHT22;10524;48.132;8.518;2022-10-16T00:04:50;12.80;99.90
20726;DHT22;10524;48.132;8.518;2022-10-16T00:07:15;12.80;99.90
20726;DHT22;10524;48.132;8.518;2022-10-16T00:09:41;12.80;99.90
20726;DHT22;10524;48.132;8.518;2022-10-16T00:12:07;12.90;99.90
20726;DHT22;10524;48.132;8.518;2022-10-16T00:14:32;12.90;99.90
20726;DHT22;10524;48.132;8.518;2022-10-16T00:16:58;12.90;99.90
20726;DHT22;10524;48.132;8.518;2022-10-16T00:19:24;13.00;99.90
20726;DHT22;10524;48.132;8.518;2022-10-16T00:21:49;13.00;99.90
20726;DHT22;10524;48.132;8.518;2022-10-16T00:24:15;13.10;99.90
20726;DHT22;10524;48.132;8.518;2022-10-16T00:26:42;13.20;99.90
20726;DHT22;10524;48.132;8.518;2022-10-16T00:29:08;13.20;99.90
20726;DHT22;10524;48.132;8.518;2022-10-16T00:31:34;13.20;99.90
20726;DHT22;10524;48.132;8.518;2022-10-16T00:34:00;13.20;99.90
20726;DHT22;10524;48.132;8.518;2022-10-16T00:36:26;13.20;99.90
20726;DHT22;10524;48.132;8.518;2022-10-16T00:38:56;13.20;99.90
20726;DHT22;10524;48.132;8.518;2022-10-16T00:41:25;13.30;99.90
20726;DHT22;10524;48.132;8.518;2022-10-16T00:43:58;13.20;99.90
20726;DHT22;10524;48.132;8.518;2022-10-16T00:49:10;13.30;99.90
20726;DHT22;10524;48.132;8.518;2022-10-16T00:51:41;13.30;99.90
20726;DHT22;10524;48.132;8.518;2022-10-16T00:54:11;13.30;99.90
20726;DHT22;10524;48.132;8.518;2022-10-16T00:56:38;13.30;99.90
20726;DHT22;10524;48.132;8.518;2022-10-16T00:59:07;13.30;99.90
20726;DHT22;10524;48.132;8.518;2022-10-16T01:01:35;13.20;99.90
20726;DHT22;10524;48.132;8.518;2022-10-16T01:04:01;13.20;99.90
20726;DHT22;10524;48.132;8.518;2022-10-16T01:06:36;13.20;99.90
20726;DHT22;10524;48.132;8.518;2022-10-16T01:09:45;13.20;99.90
20726;DHT22;10524;48.132;8.518;2022-10-16T01:12:34;13.30;99.90
20726;DHT22;10524;48.132;8.518;2022-10-16T01:17:51;13.20;99.90
20726;DHT22;10524;48.132;8.518;2022-10-16T01:20:53;13.20;99.90
20726;DHT22;10524;48.132;8.518;2022-10-16T01:26:31;13.10;99.90
20726;DHT22;10524;48.132;8.518;2022-10-16T01:29:25;13.10;99.90
20726;DHT22;10524;48.132;8.518;2022-10-16T01:31:57;13.00;99.90
20726;DHT22;10524;48.132;8.518;2022-10-16T01:34:49;13.00;99.90
20726;DHT22;10524;48.132;8.518;2022-10-16T01:37:32;13.00;99.90
20726;DHT22;10524;48.132;8.518;2022-10-16T01:40:00;13.10;99.90
20726;DHT22;10524;48.132;8.518;2022-10-16T01:42:35;13.10;99.90
20726;DHT22;10524;48.132;8.518;2022-10-16T01:45:05;13.10;99.90
20726;DHT22;10524;48.132;8.518;2022-10-16T01:47:35;13.20;99.90
20726;DHT22;10524;48.132;8.518;2022-10-16T01:50:03;13.20;99.90
20726;DHT22;10524;48.132;8.518;2022-10-16T01:52:32;13.20;99.90
20726;DHT22;10524;48.132;8.518;2022-10-16T01:55:00;13.20;99.90
20726;DHT22;10524;48.132;8.518;2022-10-16T01:57:28;13.30;99.90
20726;DHT22;10524;48.132;8.518;2022-10-16T01:59:58;13.30;99.90
20726;DHT22;10524;48.132;8.518;2022-10-16T02:02:27;13.30;99.90
20726;DHT22;10524;48.132;8.518;2022-10-16T02:07:55;13.30;99.90
20726;DHT22;10524;48.132;8.518;2022-10-16T02:10:21;13.30;99.90
20726;DHT22;10524;48.132;8.518;2022-10-16T02:12:58;13.30;99.90
20726;DHT22;10524;48.132;8.518;2022-10-16T02:15:25;13.30;99.90
20726;DHT22;10524;48.132;8.518;2022-10-16T02:17:51;13.30;99.90
20726;DHT22;10524;48.132;8.518;2022-10-16T02:20:17;13.30;99.90
20726;DHT22;10524;48.132;8.518;2022-10-16T02:22:46;13.20;99.90
20726;DHT22;10524;48.132;8.518;2022-10-16T02:25:37;13.20;99.90
20726;DHT22;10524;48.132;8.518;2022-10-16T02:28:09;13.20;99.90
20726;DHT22;10524;48.132;8.518;2022-10-16T02:30:49;13.20;99.90
20726;DHT22;10524;48.132;8.518;2022-10-16T02:33:17;13.20;99.90
20726;DHT22;10524;48.132;8.518;2022-10-16T02:35:44;13.20;99.90
20726;DHT22;10524;48.132;8.518;2022-10-16T02:38:12;13.30;99.90
20726;DHT22;10524;48.132;8.518;2022-10-16T02:40:40;13.30;99.90
20726;DHT22;10524;48.132;8.518;2022-10-16T02:43:06;13.20;99.90
20726;DHT22;10524;48.132;8.518;2022-10-16T02:45:32;13.20;99.90
20726;DHT22;10524;48.132;8.518;2022-10-16T02:47:58;13.20;99.90
20726;DHT22;10524;48.132;8.518;2022-10-16T02:50:24;13.20;99.90
20726;DHT22;10524;48.132;8.518;2022-10-16T02:52:51;13.10;99.90
20726;DHT22;10524;48.132;8.518;2022-10-16T02:55:16;13.10;99.90
20726;DHT22;10524;48.132;8.518;2022-10-16T02:57:42;13.10;99.90
20726;DHT22;10524;48.132;8.518;2022-10-16T03:00:09;13.00;99.90
20726;DHT22;10524;48.132;8.518;2022-10-16T03:02:37;12.90;99.90
20726;DHT22;10524;48.132;8.518;2022-10-16T03:05:03;12.80;99.90
20726;DHT22;10524;48.132;8.518;2022-10-16T03:07:28;12.70;99.90
20726;DHT22;10524;48.132;8.518;2022-10-16T03:09:54;12.70;99.90
20726;DHT22;10524;48.132;8.518;2022-10-16T03:12:21;12.70;99.90
20726;DHT22;10524;48.132;8.518;2022-10-16T03:14:47;12.70;99.90
20726;DHT22;10524;48.132;8.518;2022-10-16T03:17:13;12.70;99.90
20726;DHT22;10524;48.132;8.518;2022-10-16T03:19:39;12.60;99.90
20726;DHT22;10524;48.132;8.518;2022-10-16T03:22:04;12.50;99.90
20726;DHT22;10524;48.132;8.518;2022-10-16T03:24:30;12.50;99.90
20726;DHT22;10524;48.132;8.518;2022-10-16T03:26:56;12.50;99.90
20726;DHT22;10524;48.132;8.518;2022-10-16T03:29:22;12.50;99.90
20726;DHT22;10524;48.132;8.518;2022-10-16T03:31:47;12.40;99.90
20726;DHT22;10524;48.132;8.518;2022-10-16T03:34:15;12.40;99.90
20726;DHT22;10524;48.132;8.518;2022-10-16T03:36:40;12.40;99.90
20726;DHT22;10524;48.132;8.518;2022-10-16T03:39:06;12.40;99.90
20726;DHT22;10524;48.132;8.518;2022-10-16T03:41:32;12.40;99.90
20726;DHT22;10524;48.132;8.518;2022-10-16T03:43:57;12.40;99.90
20726;DHT22;10524;48.132;8.518;2022-10-16T03:46:23;12.40;99.90
20726;DHT22;10524;48.132;8.518;2022-10-16T03:48:48;12.40;99.90
20726;DHT22;10524;48.132;8.518;2022-10-16T03:51:14;12.40;99.90
20726;DHT22;10524;48.132;8.518;2022-10-16T03:53:40;12.40;99.90
20726;DHT22;10524;48.132;8.518;2022-10-16T03:56:06;12.40;99.90
20726;DHT22;10524;48.132;8.518;2022-10-16T03:58:31;12.50;99.90
20726;DHT22;10524;48.132;8.518;2022-10-16T04:00:57;12.50;99.90
20726;DHT22;10524;48.132;8.518;2022-10-16T04:03:23;12.60;99.90
20726;DHT22;10524;48.132;8.518;2022-10-16T04:05:49;12.70;99.90
20726;DHT22;10524;48.132;8.518;2022-10-16T04:08:15;12.80;99.90
20726;DHT22;10524;48.132;8.518;2022-10-16T04:10:43;12.80;99.90
20726;DHT22;10524;48.132;8.518;2022-10-16T04:13:09;12.80;99.90
20726;DHT22;10524;48.132;8.518;2022-10-16T04:15:34;12.80;99.90
20726;DHT22;10524;48.132;8.518;2022-10-16T04:18:00;12.90;99.90
20726;DHT22;10524;48.132;8.518;2022-10-16T04:20:26;12.90;99.90
20726;DHT22;10524;48.132;8.518;2022-10-16T04:22:51;13.00;99.90
20726;DHT22;10524;48.132;8.518;2022-10-16T04:25:17;13.00;99.90
20726;DHT22;10524;48.132;8.518;2022-10-16T04:27:43;13.10;99.90
20726;DHT22;10524;48.132;8.518;2022-10-16T04:30:09;13.10;99.90
20726;DHT22;10524;48.132;8.518;2022-10-16T04:32:34;13.00;99.90
20726;DHT22;10524;48.132;8.518;2022-10-16T04:35:00;13.00;99.90
20726;DHT22;10524;48.132;8.518;2022-10-16T04:37:26;13.00;99.90
20726;DHT22;10524;48.132;8.518;2022-10-16T04:39:53;12.90;99.90
20726;DHT22;10524;48.132;8.518;2022-10-16T04:42:20;12.90;99.90
20726;DHT22;10524;48.132;8.518;2022-10-16T04:44:46;12.80;99.90
20726;DHT22;10524;48.132;8.518;2022-10-16T04:47:12;12.80;99.90
20726;DHT22;10524;48.132;8.518;2022-10-16T04:49:38;12.70;99.90
20726;DHT22;10524;48.132;8.518;2022-10-16T04:52:04;12.80;99.90
20726;DHT22;10524;48.132;8.518;2022-10-16T04:54:30;12.70;99.90
20726;DHT22;10524;48.132;8.518;2022-10-16T04:56:56;12.70;99.90
20726;DHT22;10524;48.132;8.518;2022-10-16T04:59:22;12.70;99.90
20726;DHT22;10524;48.132;8.518;2022-10-16T05:01:48;12.70;99.90
20726;DHT22;10524;48.132;8.518;2022-10-16T05:04:14;12.70;99.90
20726;DHT22;10524;48.132;8.518;2022-10-16T05:06:40;12.70;99.90
20726;DHT22;10524;48.132;8.518;2022-10-16T05:09:07;12.80;99.90
20726;DHT22;10524;48.132;8.518;2022-10-16T05:11:33;12.80;99.90
20726;DHT22;10524;48.132;8.518;2022-10-16T05:13:59;12.70;99.90
20726;DHT22;10524;48.132;8.518;2022-10-16T05:16:25;12.70;99.90
20726;DHT22;10524;48.132;8.518;2022-10-16T05:18:51;12.60;99.90
20726;DHT22;10524;48.132;8.518;2022-10-16T05:21:17;12.50;99.90
20726;DHT22;10524;48.132;8.518;2022-10-16T05:23:43;12.60;99.90
20726;DHT22;10524;48.132;8.518;2022-10-16T05:26:08;12.50;99.90
20726;DHT22;10524;48.132;8.518;2022-10-16T05:28:34;12.60;99.90
20726;DHT22;10524;48.132;8.518;2022-10-16T05:31:05;12.60;99.90
20726;DHT22;10524;48.132;8.518;2022-10-16T05:33:31;12.70;99.90
20726;DHT22;10524;48.132;8.518;2022-10-16T05:35:56;12.80;99.90
20726;DHT22;10524;48.132;8.518;2022-10-16T05:38:22;12.80;99.90
20726;DHT22;10524;48.132;8.518;2022-10-16T05:40:52;12.80;99.90
20726;DHT22;10524;48.132;8.518;2022-10-16T05:43:21;12.90;99.90
20726;DHT22;10524;48.132;8.518;2022-10-16T05:45:59;12.80;99.90
20726;DHT22;10524;48.132;8.518;2022-10-16T05:48:25;12.90;99.90
20726;DHT22;10524;48.132;8.518;2022-10-16T05:51:03;12.90;99.90
20726;DHT22;10524;48.132;8.518;2022-10-16T05:53:31;12.90;99.90
20726;DHT22;10524;48.132;8.518;2022-10-16T05:55:58;12.90;99.90
20726;DHT22;10524;48.132;8.518;2022-10-16T05:58:28;12.90;99.90
20726;DHT22;10524;48.132;8.518;2022-10-16T06:01:05;12.90;99.90
20726;DHT22;10524;48.132;8.518;2022-10-16T06:03:32;12.90;99.90
20726;DHT22;10524;48.132;8.518;2022-10-16T06:05:58;13.00;99.90
20726;DHT22;10524;48.132;8.518;2022-10-16T06:08:24;13.00;99.90
20726;DHT22;10524;48.132;8.518;2022-10-16T06:11:11;13.00;99.90
20726;DHT22;10524;48.132;8.518;2022-10-16T06:13:37;13.00;99.90
20726;DHT22;10524;48.132;8.518;2022-10-16T06:16:04;13.10;99.90
20726;DHT22;10524;48.132;8.518;2022-10-16T06:18:30;13.10;99.90
20726;DHT22;10524;48.132;8.518;2022-10-16T06:20:57;13.20;99.90
20726;DHT22;10524;48.132;8.518;2022-10-16T06:23:24;13.20;99.90
20726;DHT22;10524;48.132;8.518;2022-10-16T06:25:49;13.20;99.90
20726;DHT22;10524;48.132;8.518;2022-10-16T06:28:15;13.30;99.90
20726;DHT22;10524;48.132;8.518;2022-10-16T06:30:41;13.30;99.90
20726;DHT22;10524;48.132;8.518;2022-10-16T06:33:10;13.40;99.90
20726;DHT22;10524;48.132;8.518;2022-10-16T06:35:36;13.40;99.90
20726;DHT22;10524;48.132;8.518;2022-10-16T06:38:01;13.50;99.90
20726;DHT22;10524;48.132;8.518;2022-10-16T06:40:27;13.60;99.90
20726;DHT22;10524;48.132;8.518;2022-10-16T06:42:55;13.60;99.90
20726;DHT22;10524;48.132;8.518;2022-10-16T06:45:20;13.70;99.90
20726;DHT22;10524;48.132;8.518;2022-10-16T06:47:46;13.80;99.90
20726;DHT22;10524;48.132;8.518;2022-10-16T06:50:11;13.80;99.90
20726;DHT22;10524;48.132;8.518;2022-10-16T06:52:37;13.90;99.90
20726;DHT22;10524;48.132;8.518;2022-10-16T06:55:03;14.00;99.90
20726;DHT22;10524;48.132;8.518;2022-10-16T06:57:29;14.10;99.90
20726;DHT22;10524;48.132;8.518;2022-10-16T06:59:54;14.30;99.90
20726;DHT22;10524;48.132;8.518;2022-10-16T07:02:20;14.30;99.90
20726;DHT22;10524;48.132;8.518;2022-10-16T07:04:46;14.30;99.90
20726;DHT22;10524;48.132;8.518;2022-10-16T07:07:11;14.30;99.90
20726;DHT22;10524;48.132;8.518;2022-10-16T07:09:37;14.50;99.90
20726;DHT22;10524;48.132;8.518;2022-10-16T07:12:03;14.60;99.90
20726;DHT22;10524;48.132;8.518;2022-10-16T07:14:29;14.60;99.90
20726;DHT22;10524;48.132;8.518;2022-10-16T07:16:55;14.50;99.90
20726;DHT22;10524;48.132;8.518;2022-10-16T07:19:21;14.60;99.90
20726;DHT22;10524;48.132;8.518;2022-10-16T07:21:46;14.60;99.90
20726;DHT22;10524;48.132;8.518;2022-10-16T07:24:14;14.50;99.90
20726;DHT22;10524;48.132;8.518;2022-10-16T07:26:41;14.50;99.90
20726;DHT22;10524;48.132;8.518;2022-10-16T07:29:13;14.50;99.90
20726;DHT22;10524;48.132;8.518;2022-10-16T07:31:39;14.60;99.90
20726;DHT22;10524;48.132;8.518;2022-10-16T07:34:05;14.60;99.90
20726;DHT22;10524;48.132;8.518;2022-10-16T07:36:31;14.70;99.90
20726;DHT22;10524;48.132;8.518;2022-10-16T07:38:56;14.70;99.90
20726;DHT22;10524;48.132;8.518;2022-10-16T07:41:22;14.70;99.90
20726;DHT22;10524;48.132;8.518;2022-10-16T07:43:50;14.70;99.90
20726;DHT22;10524;48.132;8.518;2022-10-16T07:46:17;14.60;99.90
20726;DHT22;10524;48.132;8.518;2022-10-16T07:48:43;14.60;99.90
20726;DHT22;10524;48.132;8.518;2022-10-16T07:51:23;14.60;99.90
20726;DHT22;10524;48.132;8.518;2022-10-16T07:53:49;14.70;99.90
20726;DHT22;10524;48.132;8.518;2022-10-16T07:56:16;14.80;99.90
20726;DHT22;10524;48.132;8.518;2022-10-16T07:58:42;14.90;99.90
20726;DHT22;10524;48.132;8.518;2022-10-16T08:01:10;15.10;99.90
20726;DHT22;10524;48.132;8.518;2022-10-16T08:03:36;15.30;99.90
20726;DHT22;10524;48.132;8.518;2022-10-16T08:06:03;15.60;99.90
20726;DHT22;10524;48.132;8.518;2022-10-16T08:08:29;15.80;99.90
20726;DHT22;10524;48.132;8.518;2022-10-16T08:10:55;15.90;99.90
20726;DHT22;10524;48.132;8.518;2022-10-16T08:13:22;16.10;99.90
20726;DHT22;10524;48.132;8.518;2022-10-16T08:15:48;16.10;99.90
20726;DHT22;10524;48.132;8.518;2022-10-16T08:18:15;16.10;99.90
20726;DHT22;10524;48.132;8.518;2022-10-16T08:20:42;16.10;99.90
20726;DHT22;10524;48.132;8.518;2022-10-16T08:23:09;16.30;99.90
20726;DHT22;10524;48.132;8.518;2022-10-16T08:25:36;16.50;99.90
20726;DHT22;10524;48.132;8.518;2022-10-16T08:28:07;17.00;99.90
20726;DHT22;10524;48.132;8.518;2022-10-16T08:30:33;17.40;99.90
20726;DHT22;10524;48.132;8.518;2022-10-16T08:32:59;17.70;99.90
20726;DHT22;10524;48.132;8.518;2022-10-16T08:35:25;17.70;99.90
20726;DHT22;10524;48.132;8.518;2022-10-16T08:37:50;17.70;99.90
20726;DHT22;10524;48.132;8.518;2022-10-16T08:40:27;17.70;99.90
20726;DHT22;10524;48.132;8.518;2022-10-16T08:51:06;17.40;99.90
20726;DHT22;10524;48.132;8.518;2022-10-16T08:54:01;17.30;99.90
20726;DHT22;10524;48.132;8.518;2022-10-16T08:56:28;17.30;99.90
20726;DHT22;10524;48.132;8.518;2022-10-16T08:58:54;17.60;99.90
20726;DHT22;10524;48.132;8.518;2022-10-16T09:01:21;17.90;99.90
20726;DHT22;10524;48.132;8.518;2022-10-16T09:09:31;18.10;99.90
20726;DHT22;10524;48.132;8.518;2022-10-16T09:15:02;17.90;99.90
20726;DHT22;10524;48.132;8.518;2022-10-16T09:20:26;18.20;99.90
20726;DHT22;10524;48.132;8.518;2022-10-16T09:25:28;18.20;99.90
20726;DHT22;10524;48.132;8.518;2022-10-16T09:27:55;18.00;99.90
20726;DHT22;10524;48.132;8.518;2022-10-16T09:30:22;17.70;99.90
20726;DHT22;10524;48.132;8.518;2022-10-16T09:32:51;17.40;99.90
20726;DHT22;10524;48.132;8.518;2022-10-16T09:35:20;17.30;99.90
20726;DHT22;10524;48.132;8.518;2022-10-16T09:37:49;17.10;99.90
20726;DHT22;10524;48.132;8.518;2022-10-16T09:45:57;16.90;99.90
20726;DHT22;10524;48.132;8.518;2022-10-16T09:48:27;17.00;99.90
20726;DHT22;10524;48.132;8.518;2022-10-16T09:51:02;17.20;99.90
20726;DHT22;10524;48.132;8.518;2022-10-16T09:53:41;17.50;99.90
20726;DHT22;10524;48.132;8.518;2022-10-16T09:56:09;18.00;99.90
20726;DHT22;10524;48.132;8.518;2022-10-16T09:58:35;18.90;99.90
20726;DHT22;10524;48.132;8.518;2022-10-16T10:01:01;21.30;99.90
20726;DHT22;10524;48.132;8.518;2022-10-16T10:03:40;23.50;99.90
20726;DHT22;10524;48.132;8.518;2022-10-16T10:06:20;23.10;99.90
20726;DHT22;10524;48.132;8.518;2022-10-16T10:08:54;22.70;99.90
20726;DHT22;10524;48.132;8.518;2022-10-16T10:11:50;23.50;99.90
20726;DHT22;10524;48.132;8.518;2022-10-16T10:14:21;24.40;99.90
20726;DHT22;10524;48.132;8.518;2022-10-16T10:16:48;26.20;99.90
20726;DHT22;10524;48.132;8.518;2022-10-16T10:19:19;27.40;99.90
20726;DHT22;10524;48.132;8.518;2022-10-16T10:21:45;27.40;99.90
20726;DHT22;10524;48.132;8.518;2022-10-16T10:24:15;28.20;99.90
20726;DHT22;10524;48.132;8.518;2022-10-16T10:26:52;27.30;99.90
20726;DHT22;10524;48.132;8.518;2022-10-16T10:29:47;28.40;99.90
20726;DHT22;10524;48.132;8.518;2022-10-16T10:35:28;29.30;99.90
20726;DHT22;10524;48.132;8.518;2022-10-16T10:38:20;30.70;99.90
20726;DHT22;10524;48.132;8.518;2022-10-16T11:05:49;30.80;99.90
20726;DHT22;10524;48.132;8.518;2022-10-16T11:08:20;29.70;99.90
20726;DHT22;10524;48.132;8.518;2022-10-16T11:10:56;27.10;99.90
20726;DHT22;10524;48.132;8.518;2022-10-16T11:13:37;27.40;99.90
20726;DHT22;10524;48.132;8.518;2022-10-16T11:16:13;27.70;99.90
20726;DHT22;10524;48.132;8.518;2022-10-16T11:18:55;27.00;99.90
20726;DHT22;10524;48.132;8.518;2022-10-16T11:21:23;25.80;99.90
20726;DHT22;10524;48.132;8.518;2022-10-16T11:24:04;25.10;99.90
20726;DHT22;10524;48.132;8.518;2022-10-16T11:26:35;24.60;99.90
20726;DHT22;10524;48.132;8.518;2022-10-16T11:29:03;25.60;99.90
20726;DHT22;10524;48.132;8.518;2022-10-16T11:39:38;29.60;99.90
20726;DHT22;10524;48.132;8.518;2022-10-16T11:45:00;30.30;99.90
20726;DHT22;10524;48.132;8.518;2022-10-16T11:47:37;29.30;99.90
20726;DHT22;10524;48.132;8.518;2022-10-16T11:50:34;28.10;99.90
20726;DHT22;10524;48.132;8.518;2022-10-16T11:55:43;26.90;99.90
20726;DHT22;10524;48.132;8.518;2022-10-16T12:01:02;27.10;99.90
20726;DHT22;10524;48.132;8.518;2022-10-16T12:06:10;29.60;99.90
20726;DHT22;10524;48.132;8.518;2022-10-16T12:08:38;29.10;99.90
20726;DHT22;10524;48.132;8.518;2022-10-16T12:11:23;28.80;99.90
20726;DHT22;10524;48.132;8.518;2022-10-16T12:13:50;29.00;99.90
20726;DHT22;10524;48.132;8.518;2022-10-16T12:18:44;28.00;99.90
20726;DHT22;10524;48.132;8.518;2022-10-16T12:21:18;27.80;99.90
20726;DHT22;10524;48.132;8.518;2022-10-16T12:23:56;27.20;99.90
20726;DHT22;10524;48.132;8.518;2022-10-16T12:26:26;27.60;99.90
20726;DHT22;10524;48.132;8.518;2022-10-16T12:28:53;28.30;99.90
20726;DHT22;10524;48.132;8.518;2022-10-16T12:31:20;28.50;99.90
20726;DHT22;10524;48.132;8.518;2022-10-16T12:34:01;28.60;99.90
20726;DHT22;10524;48.132;8.518;2022-10-16T12:36:33;28.30;99.90
20726;DHT22;10524;48.132;8.518;2022-10-16T12:38:59;28.00;99.90
20726;DHT22;10524;48.132;8.518;2022-10-16T12:42:19;26.80;99.90
20726;DHT22;10524;48.132;8.518;2022-10-16T12:54:55;22.70;99.90
20726;DHT22;10524;48.132;8.518;2022-10-16T13:00:35;23.00;99.90
20726;DHT22;10524;48.132;8.518;2022-10-16T13:03:38;23.00;99.90
20726;DHT22;10524;48.132;8.518;2022-10-16T13:09:08;23.00;99.90
20726;DHT22;10524;48.132;8.518;2022-10-16T13:22:37;23.00;99.90
20726;DHT22;10524;48.132;8.518;2022-10-16T13:25:36;23.00;99.90
20726;DHT22;10524;48.132;8.518;2022-10-16T13:28:10;22.90;99.90
20726;DHT22;10524;48.132;8.518;2022-10-16T13:30:44;22.80;99.90
20726;DHT22;10524;48.132;8.518;2022-10-16T13:36:01;22.60;99.90
20726;DHT22;10524;48.132;8.518;2022-10-16T13:38:36;22.50;99.90
20726;DHT22;10524;48.132;8.518;2022-10-16T13:46:05;22.40;99.90
20726;DHT22;10524;48.132;8.518;2022-10-16T13:48:32;22.10;99.90
20726;DHT22;10524;48.132;8.518;2022-10-16T13:51:03;22.00;99.90
20726;DHT22;10524;48.132;8.518;2022-10-16T13:53:33;22.10;99.90
20726;DHT22;10524;48.132;8.518;2022-10-16T13:55:59;22.20;99.90
20726;DHT22;10524;48.132;8.518;2022-10-16T13:58:26;22.30;99.90
20726;DHT22;10524;48.132;8.518;2022-10-16T14:01:00;22.20;99.90
20726;DHT22;10524;48.132;8.518;2022-10-16T14:03:27;22.20;99.90
20726;DHT22;10524;48.132;8.518;2022-10-16T14:05:56;22.30;99.90
20726;DHT22;10524;48.132;8.518;2022-10-16T14:08:23;22.30;99.90
20726;DHT22;10524;48.132;8.518;2022-10-16T14:10:52;22.20;99.90
20726;DHT22;10524;48.132;8.518;2022-10-16T14:13:34;22.20;99.90
20726;DHT22;10524;48.132;8.518;2022-10-16T14:16:07;22.20;99.90
20726;DHT22;10524;48.132;8.518;2022-10-16T14:18:33;22.10;99.90
20726;DHT22;10524;48.132;8.518;2022-10-16T14:21:07;22.00;99.90
20726;DHT22;10524;48.132;8.518;2022-10-16T14:23:39;21.80;99.90
20726;DHT22;10524;48.132;8.518;2022-10-16T14:28:37;21.60;99.90
20726;DHT22;10524;48.132;8.518;2022-10-16T14:31:31;21.50;99.90
20726;DHT22;10524;48.132;8.518;2022-10-16T14:33:57;21.40;99.90
20726;DHT22;10524;48.132;8.518;2022-10-16T14:36:24;21.40;99.90
20726;DHT22;10524;48.132;8.518;2022-10-16T14:41:30;21.50;99.90
20726;DHT22;10524;48.132;8.518;2022-10-16T14:44:02;21.40;99.90
20726;DHT22;10524;48.132;8.518;2022-10-16T14:46:33;21.40;99.90
20726;DHT22;10524;48.132;8.518;2022-10-16T14:51:34;21.20;99.90
20726;DHT22;10524;48.132;8.518;2022-10-16T14:54:00;21.10;99.90
20726;DHT22;10524;48.132;8.518;2022-10-16T14:56:41;21.10;99.90
20726;DHT22;10524;48.132;8.518;2022-10-16T14:59:16;21.10;99.90
20726;DHT22;10524;48.132;8.518;2022-10-16T15:01:46;21.00;99.90
20726;DHT22;10524;48.132;8.518;2022-10-16T15:04:12;21.00;99.90
20726;DHT22;10524;48.132;8.518;2022-10-16T15:06:39;21.00;99.90
20726;DHT22;10524;48.132;8.518;2022-10-16T15:09:04;21.00;99.90
20726;DHT22;10524;48.132;8.518;2022-10-16T15:11:32;21.00;99.90
20726;DHT22;10524;48.132;8.518;2022-10-16T15:13:58;20.90;99.90
20726;DHT22;10524;48.132;8.518;2022-10-16T15:16:24;20.80;99.90
20726;DHT22;10524;48.132;8.518;2022-10-16T15:18:49;20.80;99.90
20726;DHT22;10524;48.132;8.518;2022-10-16T15:23:51;20.60;99.90
20726;DHT22;10524;48.132;8.518;2022-10-16T15:26:17;20.50;99.90
20726;DHT22;10524;48.132;8.518;2022-10-16T15:28:43;20.40;99.90
20726;DHT22;10524;48.132;8.518;2022-10-16T15:31:08;20.30;99.90
20726;DHT22;10524;48.132;8.518;2022-10-16T15:33:34;20.20;99.90
20726;DHT22;10524;48.132;8.518;2022-10-16T15:36:02;20.10;99.90
20726;DHT22;10524;48.132;8.518;2022-10-16T15:38:28;20.10;99.90
20726;DHT22;10524;48.132;8.518;2022-10-16T15:40:55;20.00;99.90
20726;DHT22;10524;48.132;8.518;2022-10-16T15:43:21;19.90;99.90
20726;DHT22;10524;48.132;8.518;2022-10-16T15:46:01;19.70;99.90
20726;DHT22;10524;48.132;8.518;2022-10-16T15:48:28;19.60;99.90
20726;DHT22;10524;48.132;8.518;2022-10-16T15:50:54;19.50;99.90
20726;DHT22;10524;48.132;8.518;2022-10-16T15:53:20;19.30;99.90
20726;DHT22;10524;48.132;8.518;2022-10-16T15:55:46;19.20;99.90
20726;DHT22;10524;48.132;8.518;2022-10-16T15:58:11;19.20;99.90
20726;DHT22;10524;48.132;8.518;2022-10-16T16:00:37;19.10;99.90
20726;DHT22;10524;48.132;8.518;2022-10-16T16:03:03;18.90;99.90
20726;DHT22;10524;48.132;8.518;2022-10-16T16:05:29;18.80;99.90
20726;DHT22;10524;48.132;8.518;2022-10-16T16:07:55;18.70;99.90
20726;DHT22;10524;48.132;8.518;2022-10-16T16:10:21;18.60;99.90
20726;DHT22;10524;48.132;8.518;2022-10-16T16:12:48;18.50;99.90
20726;DHT22;10524;48.132;8.518;2022-10-16T16:15:18;18.40;99.90
20726;DHT22;10524;48.132;8.518;2022-10-16T16:17:44;18.20;99.90
20726;DHT22;10524;48.132;8.518;2022-10-16T16:20:10;18.10;99.90
20726;DHT22;10524;48.132;8.518;2022-10-16T16:22:36;18.00;99.90
20726;DHT22;10524;48.132;8.518;2022-10-16T16:25:01;17.80;99.90
20726;DHT22;10524;48.132;8.518;2022-10-16T16:27:27;17.60;99.90
20726;DHT22;10524;48.132;8.518;2022-10-16T16:29:55;17.30;99.90
20726;DHT22;10524;48.132;8.518;2022-10-16T16:32:21;17.20;99.90
20726;DHT22;10524;48.132;8.518;2022-10-16T16:34:47;17.00;99.90
20726;DHT22;10524;48.132;8.518;2022-10-16T16:37:13;16.80;99.90
20726;DHT22;10524;48.132;8.518;2022-10-16T16:39:38;16.40;99.90
20726;DHT22;10524;48.132;8.518;2022-10-16T16:42:04;16.20;99.90
20726;DHT22;10524;48.132;8.518;2022-10-16T16:44:32;15.90;99.90
20726;DHT22;10524;48.132;8.518;2022-10-16T16:46:58;15.70;99.90
20726;DHT22;10524;48.132;8.518;2022-10-16T16:49:23;15.50;99.90
20726;DHT22;10524;48.132;8.518;2022-10-16T16:51:49;15.30;99.90
20726;DHT22;10524;48.132;8.518;2022-10-16T16:54:15;15.10;99.90
20726;DHT22;10524;48.132;8.518;2022-10-16T16:56:41;14.90;99.90
20726;DHT22;10524;48.132;8.518;2022-10-16T16:59:17;14.60;99.90
20726;DHT22;10524;48.132;8.518;2022-10-16T17:01:45;14.40;99.90
20726;DHT22;10524;48.132;8.518;2022-10-16T17:04:11;14.30;99.90
20726;DHT22;10524;48.132;8.518;2022-10-16T17:06:37;14.30;99.90
20726;DHT22;10524;48.132;8.518;2022-10-16T17:09:05;14.20;99.90
20726;DHT22;10524;48.132;8.518;2022-10-16T17:11:31;14.00;99.90
20726;DHT22;10524;48.132;8.518;2022-10-16T17:13:59;13.90;99.90
20726;DHT22;10524;48.132;8.518;2022-10-16T17:16:28;13.80;99.90
20726;DHT22;10524;48.132;8.518;2022-10-16T17:18:54;13.60;99.90
20726;DHT22;10524;48.132;8.518;2022-10-16T17:21:20;13.40;99.90
20726;DHT22;10524;48.132;8.518;2022-10-16T17:23:47;13.40;99.90
20726;DHT22;10524;48.132;8.518;2022-10-16T17:26:16;13.30;99.90
20726;DHT22;10524;48.132;8.518;2022-10-16T17:28:42;13.20;99.90
20726;DHT22;10524;48.132;8.518;2022-10-16T17:31:12;13.10;99.90
20726;DHT22;10524;48.132;8.518;2022-10-16T17:33:38;13.00;99.90
20726;DHT22;10524;48.132;8.518;2022-10-16T17:36:04;13.00;99.90
20726;DHT22;10524;48.132;8.518;2022-10-16T17:38:30;13.00;99.90
20726;DHT22;10524;48.132;8.518;2022-10-16T17:40:56;12.90;99.90
20726;DHT22;10524;48.132;8.518;2022-10-16T17:43:21;12.80;99.90
20726;DHT22;10524;48.132;8.518;2022-10-16T17:45:47;12.70;99.90
20726;DHT22;10524;48.132;8.518;2022-10-16T17:48:13;12.60;99.90
20726;DHT22;10524;48.132;8.518;2022-10-16T17:50:42;12.60;99.90
20726;DHT22;10524;48.132;8.518;2022-10-16T17:53:08;12.60;99.90
20726;DHT22;10524;48.132;8.518;2022-10-16T17:55:38;12.60;99.90
20726;DHT22;10524;48.132;8.518;2022-10-16T17:58:04;12.40;99.90